Terminal Aerodrome Forecast
Issued by NWS Glasgow, MT

Home | Current Version | Previous Version | Text Only | Print | Product List | Glossary On
Versions: 1 2 3 4 5 6 7 8 9 10 11 12 13 14 15 16 17
000
FTUS45 KGGW 262300
TAFGGW
TAF
KGGW 262337Z 2700/2724 VRB06KT P6SM BKN017 OVC027
     FM270200 VRB04KT P6SM BKN040
     FM271500 25005KT P6SM OVC080=

USA.gov is the U.S. government's official web portal to all federal, state and local government web resources and services.